createdAt,value
2024-03-28T00:03:28.608Z,96167.70
2024-03-28T00:06:16.730Z,96166.10
2024-03-28T00:09:04.672Z,96160.65
2024-03-28T00:11:55.348Z,96153.80
2024-03-28T00:14:43.518Z,96158.71
2024-03-28T00:17:33.483Z,96153.39
2024-03-28T00:20:21.277Z,96156.45
2024-03-28T00:23:09.143Z,96151.13
2024-03-28T00:25:59.747Z,96152.05
2024-03-28T00:28:47.153Z,96151.42
2024-03-28T00:31:35.452Z,96147.94
2024-03-28T00:34:23.249Z,96138.19
2024-03-28T00:37:10.915Z,96138.83
2024-03-28T00:39:59.376Z,96127.59
2024-03-28T00:42:46.905Z,96127.43
2024-03-28T00:45:34.827Z,96127.87
2024-03-28T00:48:22.871Z,96117.71
2024-03-28T00:51:10.597Z,96107.35
2024-03-28T00:53:58.625Z,96108.93
2024-03-28T00:56:46.783Z,96103.63
2024-03-28T00:59:34.548Z,96102.36
2024-03-28T01:02:22.496Z,96106.38
2024-03-28T01:05:10.218Z,96108.26
2024-03-28T01:07:58.278Z,96103.46
2024-03-28T01:10:46.098Z,96092.71
2024-03-28T01:13:33.842Z,96094.08
2024-03-28T01:16:21.712Z,96087.72
2024-03-28T01:19:09.506Z,96091.73
2024-03-28T01:21:57.535Z,96086.80
2024-03-28T01:24:45.389Z,96083.91
2024-03-28T01:27:35.727Z,96083.34
2024-03-28T01:30:23.649Z,96079.74
2024-03-28T01:33:11.102Z,96081.19
2024-03-28T01:36:00.277Z,96078.61
2024-03-28T01:38:48.539Z,96081.63
2024-03-28T01:41:36.712Z,96086.29
2024-03-28T01:44:25.241Z,96093.07
2024-03-28T01:47:35.004Z,96095.95
2024-03-28T01:50:23.357Z,96093.95
2024-03-28T01:53:11.624Z,96094.48
2024-03-28T01:55:59.624Z,96095.98
2024-03-28T01:58:47.406Z,96099.20
2024-03-28T02:01:39.837Z,96101.70
2024-03-28T02:04:27.588Z,96105.29
2024-03-28T02:07:15.359Z,96101.31
2024-03-28T02:10:03.969Z,96094.74
2024-03-28T02:12:51.573Z,96095.60
2024-03-28T02:15:39.604Z,96083.73
2024-03-28T02:18:27.738Z,96077.02
2024-03-28T02:21:15.961Z,96076.70
2024-03-28T02:24:03.773Z,96074.83
2024-03-28T02:26:51.878Z,96068.68
2024-03-28T02:29:39.507Z,96065.09
2024-03-28T02:32:28.005Z,96062.80
2024-03-28T02:35:16.031Z,96059.23
2024-03-28T02:38:03.813Z,96057.36
2024-03-28T02:40:52.493Z,96054.70
2024-03-28T02:43:40.336Z,96054.28
2024-03-28T02:46:28.275Z,96051.52
2024-03-28T02:49:16.027Z,96050.13
2024-03-28T02:52:04.153Z,96043.27
2024-03-28T02:54:51.927Z,96042.89
2024-03-28T02:57:40.033Z,96040.66
2024-03-28T03:00:27.860Z,96047.50
2024-03-28T03:03:15.504Z,96047.20
2024-03-28T03:06:03.766Z,96041.19
2024-03-28T03:08:51.927Z,96041.52
2024-03-28T03:11:40.456Z,96042.36
2024-03-28T03:14:29.781Z,96044.74
2024-03-28T03:17:17.555Z,96041.38
2024-03-28T03:20:09.579Z,96035.55
2024-03-28T03:23:06.454Z,96034.27
2024-03-28T03:26:01.137Z,96021.66
2024-03-28T03:29:07.616Z,96023.80
2024-03-28T03:32:14.137Z,96015.11
2024-03-28T03:35:01.986Z,96021.13
2024-03-28T03:37:50.177Z,96022.04
2024-03-28T03:40:38.377Z,96024.69
2024-03-28T03:43:26.254Z,96014.52
2024-03-28T03:46:14.044Z,96010.20
2024-03-28T03:49:01.748Z,96011.98
2024-03-28T03:51:50.202Z,96007.84
2024-03-28T03:54:44.487Z,95999.38
2024-03-28T03:57:32.327Z,96002.38
2024-03-28T04:00:19.840Z,96000.00
2024-03-28T04:03:07.878Z,95996.12
2024-03-28T04:05:55.635Z,95992.48
2024-03-28T04:08:43.670Z,95995.28
2024-03-28T04:11:32.307Z,95996.91
2024-03-28T04:14:20.190Z,95988.35
2024-03-28T04:17:08.164Z,95991.36
2024-03-28T04:19:55.958Z,95989.98
2024-03-28T04:22:43.698Z,95983.75
2024-03-28T04:25:32.639Z,95983.81
2024-03-28T04:28:20.295Z,95980.36
2024-03-28T04:31:08.049Z,95982.83
2024-03-28T04:33:56.132Z,95984.23
2024-03-28T04:36:44.763Z,95986.00
2024-03-28T04:39:32.623Z,95986.23
2024-03-28T04:42:20.269Z,95987.24
2024-03-28T04:45:10.050Z,95990.20
2024-03-28T04:47:58.490Z,95993.65
2024-03-28T04:50:46.868Z,95993.31
2024-03-28T04:53:35.396Z,95993.39
2024-03-28T04:56:23.260Z,95996.33
2024-03-28T04:59:10.969Z,95996.36
2024-03-28T05:01:58.613Z,96000.00
2024-03-28T05:04:46.516Z,95993.40
2024-03-28T05:07:34.273Z,95993.14
2024-03-28T05:10:22.223Z,95995.20
2024-03-28T05:13:10.082Z,96006.01
2024-03-28T05:15:57.940Z,96017.28
2024-03-28T05:18:46.135Z,96024.40
2024-03-28T05:21:33.769Z,96026.36
2024-03-28T05:24:21.626Z,96024.61
2024-03-28T05:27:09.342Z,96028.11
2024-03-28T05:29:57.023Z,96028.90
2024-03-28T05:32:44.809Z,96033.58
2024-03-28T05:35:32.971Z,96033.87
2024-03-28T05:38:20.537Z,96036.97
2024-03-28T05:41:08.247Z,96038.63
2024-03-28T05:43:56.168Z,96040.16
2024-03-28T05:46:43.893Z,96046.79
2024-03-28T05:49:32.036Z,96053.65
2024-03-28T05:52:19.903Z,96059.90
2024-03-28T05:55:08.772Z,96065.61
2024-03-28T05:57:56.296Z,96064.73
2024-03-28T06:00:44.133Z,96064.77
2024-03-28T06:03:32.168Z,96063.27
2024-03-28T06:06:20.215Z,96071.95
2024-03-28T06:09:10.075Z,96076.55
2024-03-28T06:11:58.223Z,96076.62
2024-03-28T06:14:45.984Z,96079.67
2024-03-28T06:17:33.877Z,96083.92
2024-03-28T06:20:21.763Z,96084.90
2024-03-28T06:23:09.494Z,96082.04
2024-03-28T06:26:02.834Z,96080.60
2024-03-28T06:28:50.968Z,96086.33
2024-03-28T06:31:41.406Z,96080.13
2024-03-28T06:34:28.925Z,96077.35
2024-03-28T06:37:20.204Z,96080.77
2024-03-28T06:40:09.225Z,96077.84
2024-03-28T06:42:57.224Z,96061.67
2024-03-28T06:45:45.267Z,96056.98
2024-03-28T06:48:32.917Z,96051.62
2024-03-28T06:51:20.786Z,96049.86
2024-03-28T06:54:08.971Z,96052.86
2024-03-28T06:56:56.735Z,96056.77
2024-03-28T06:59:44.673Z,96055.16
2024-03-28T07:02:32.327Z,96056.10
2024-03-28T07:05:20.230Z,96073.32
2024-03-28T07:08:08.168Z,96076.05
2024-03-28T07:10:56.443Z,96088.39
2024-03-28T07:13:44.988Z,96097.91
2024-03-28T07:16:33.872Z,96100.77
2024-03-28T07:19:21.597Z,96098.87
2024-03-28T07:22:09.708Z,96098.54
2024-03-28T07:24:58.066Z,96102.42
2024-03-28T07:27:46.099Z,96108.90
2024-03-28T07:30:33.818Z,96105.74
2024-03-28T07:33:21.911Z,96101.78
2024-03-28T07:36:10.263Z,96075.84
2024-03-28T07:38:58.267Z,96074.80
2024-03-28T07:41:46.005Z,96086.41
2024-03-28T07:44:33.591Z,96093.63
2024-03-28T07:47:21.365Z,96097.53
2024-03-28T07:50:10.030Z,96106.71
2024-03-28T07:52:57.992Z,96107.45
2024-03-28T07:55:45.739Z,96104.23
2024-03-28T07:58:33.238Z,96108.48
2024-03-28T08:01:21.021Z,96107.97
2024-03-28T08:04:09.029Z,96121.25
2024-03-28T08:06:59.494Z,96125.92
2024-03-28T08:09:49.391Z,96118.44
2024-03-28T08:12:40.758Z,96105.44
2024-03-28T08:15:28.561Z,96102.86
2024-03-28T08:18:18.050Z,96098.65
2024-03-28T08:21:06.118Z,96106.39
2024-03-28T08:23:54.106Z,96104.46
2024-03-28T08:26:42.780Z,96094.17
2024-03-28T08:29:31.117Z,96084.90
2024-03-28T08:32:18.951Z,96084.34
2024-03-28T08:35:07.740Z,96086.54
2024-03-28T08:37:56.068Z,96097.61
2024-03-28T08:40:44.100Z,96099.60
2024-03-28T08:43:32.148Z,96098.30
2024-03-28T08:46:20.051Z,96097.33
2024-03-28T08:49:10.827Z,96108.00
2024-03-28T08:51:59.851Z,96109.94
2024-03-28T08:54:47.587Z,96115.82
2024-03-28T08:57:35.927Z,96119.55
2024-03-28T09:00:26.579Z,96123.55
2024-03-28T09:03:14.717Z,96134.64
2024-03-28T09:06:04.725Z,96143.86
2024-03-28T09:08:52.547Z,96147.08
2024-03-28T09:11:40.546Z,96151.02
2024-03-28T09:14:28.313Z,96156.40
2024-03-28T09:17:16.349Z,96176.91
2024-03-28T09:20:08.359Z,96188.17
2024-03-28T09:22:56.529Z,96198.62
2024-03-28T09:25:44.636Z,96208.16
2024-03-28T09:28:32.637Z,96213.16
2024-03-28T09:31:21.244Z,96213.44
2024-03-28T09:34:08.554Z,96215.42
2024-03-28T09:36:56.199Z,96212.11
2024-03-28T09:39:49.311Z,96218.15
2024-03-28T09:42:38.460Z,96228.73
2024-03-28T09:45:28.612Z,96227.69
2024-03-28T09:48:17.073Z,96235.05
2024-03-28T09:51:07.425Z,96239.84
2024-03-28T09:53:59.937Z,96240.63
2024-03-28T09:56:48.704Z,96234.98
2024-03-28T09:59:36.610Z,96240.86
2024-03-28T10:02:54.780Z,96254.65
2024-03-28T10:05:42.231Z,96269.05
2024-03-28T10:08:31.698Z,96265.58
2024-03-28T10:11:19.498Z,96260.20
2024-03-28T10:14:28.124Z,96267.77
2024-03-28T10:17:18.037Z,96272.75
2024-03-28T10:20:08.718Z,96277.36
2024-03-28T10:22:57.477Z,96287.49
2024-03-28T10:25:45.617Z,96296.19
2024-03-28T10:28:37.012Z,96303.61
2024-03-28T10:31:26.923Z,96304.73
2024-03-28T10:34:18.970Z,96308.27
2024-03-28T10:37:07.227Z,96305.19
2024-03-28T10:39:55.176Z,96304.51
2024-03-28T10:42:46.473Z,96300.67
2024-03-28T10:45:39.886Z,96295.25
2024-03-28T10:48:30.873Z,96297.08
2024-03-28T10:51:41.321Z,96294.22
2024-03-28T10:54:41.652Z,96298.15
2024-03-28T10:57:30.195Z,96294.29
2024-03-28T11:00:18.570Z,96303.11
2024-03-28T11:03:09.962Z,96313.67
2024-03-28T11:06:02.105Z,96320.71
2024-03-28T11:08:50.479Z,96319.80
2024-03-28T11:11:38.826Z,96324.90
2024-03-28T11:14:27.682Z,96331.29
2024-03-28T11:17:15.835Z,96329.65
2024-03-28T11:20:09.775Z,96335.37
2024-03-28T11:23:05.302Z,96342.13
2024-03-28T11:26:07.576Z,96353.40
2024-03-28T11:29:02.587Z,96362.56
2024-03-28T11:31:58.835Z,96376.01
2024-03-28T11:34:46.715Z,96380.06
2024-03-28T11:37:34.288Z,96387.11
2024-03-28T11:40:21.989Z,96397.48
2024-03-28T11:43:14.229Z,96386.90
2024-03-28T11:46:04.688Z,96408.27
2024-03-28T11:48:56.927Z,96413.37
2024-03-28T11:51:45.691Z,96415.90
2024-03-28T11:54:33.537Z,96414.35
2024-03-28T11:57:21.265Z,96417.89
2024-03-28T12:00:09.886Z,96416.65
2024-03-28T12:02:58.750Z,96421.20
2024-03-28T12:05:50.383Z,96427.94
2024-03-28T12:08:42.795Z,96430.41
2024-03-28T12:11:31.096Z,96433.92
2024-03-28T12:14:22.493Z,96428.14
2024-03-28T12:17:09.860Z,96425.46
2024-03-28T12:20:09.800Z,96427.97
2024-03-28T12:23:04.522Z,96430.86
2024-03-28T12:25:52.726Z,96422.61
2024-03-28T12:28:47.793Z,96415.97
2024-03-28T12:31:35.590Z,96416.86
2024-03-28T12:34:23.459Z,96420.46
2024-03-28T12:37:11.037Z,96420.51
2024-03-28T12:40:10.385Z,96429.91
2024-03-28T12:42:58.438Z,96436.25
2024-03-28T12:45:46.362Z,96435.14
2024-03-28T12:48:33.854Z,96430.54
2024-03-28T12:51:21.580Z,96432.61
2024-03-28T12:54:09.183Z,96445.30
2024-03-28T12:56:56.910Z,96452.73
2024-03-28T12:59:44.718Z,96452.66
2024-03-28T13:02:32.842Z,96446.73
2024-03-28T13:05:20.933Z,96439.31
2024-03-28T13:08:08.873Z,96457.27
2024-03-28T13:10:56.399Z,96459.17
2024-03-28T13:13:44.449Z,96468.09
2024-03-28T13:16:32.594Z,96473.13
2024-03-28T13:19:20.261Z,96476.78
2024-03-28T13:22:08.308Z,96473.98
2024-03-28T13:24:56.440Z,96476.48
2024-03-28T13:27:45.268Z,96479.00
2024-03-28T13:30:33.549Z,96480.13
2024-03-28T13:33:21.663Z,96480.52
2024-03-28T13:36:10.254Z,96490.13
2024-03-28T13:38:58.715Z,96492.46
2024-03-28T13:41:46.220Z,96485.14
2024-03-28T13:44:34.332Z,96486.80
2024-03-28T13:47:22.482Z,96486.17
2024-03-28T13:50:11.352Z,96491.86
2024-03-28T13:52:59.106Z,96490.28
2024-03-28T13:55:48.091Z,96488.20
2024-03-28T13:58:35.723Z,96488.37
2024-03-28T14:01:23.438Z,96484.15
2024-03-28T14:04:11.774Z,96485.46
2024-03-28T14:06:59.831Z,96481.91
2024-03-28T14:09:49.896Z,96483.48
2024-03-28T14:12:39.818Z,96486.82
2024-03-28T14:15:27.615Z,96485.97
2024-03-28T14:18:15.453Z,96482.30
2024-03-28T14:21:04.724Z,96485.59
2024-03-28T14:23:53.471Z,96493.20
2024-03-28T14:26:41.135Z,96491.91
2024-03-28T14:29:28.619Z,96492.50
2024-03-28T14:32:16.410Z,96495.71
2024-03-28T14:35:05.790Z,96497.74
2024-03-28T14:37:53.193Z,96502.60
2024-03-28T14:40:42.712Z,96500.11
2024-03-28T14:43:30.825Z,96499.70
2024-03-28T14:46:18.760Z,96500.38
2024-03-28T14:49:05.998Z,96505.09
2024-03-28T14:51:54.992Z,96507.79
2024-03-28T14:54:48.397Z,96511.65
2024-03-28T14:57:36.128Z,96518.14
2024-03-28T15:00:26.128Z,96514.64
2024-03-28T15:03:15.388Z,96523.81
2024-03-28T15:06:04.054Z,96520.74
2024-03-28T15:08:52.090Z,96521.95
2024-03-28T15:11:40.229Z,96525.30
2024-03-28T15:14:28.391Z,96527.02
2024-03-28T15:17:16.213Z,96525.66
2024-03-28T15:20:06.442Z,96529.73
2024-03-28T15:22:53.969Z,96531.56
2024-03-28T15:25:44.466Z,96525.48
2024-03-28T15:28:33.007Z,96535.74
2024-03-28T15:31:23.287Z,96537.23
2024-03-28T15:34:11.328Z,96543.23
2024-03-28T15:36:59.372Z,96548.10
2024-03-28T15:39:47.127Z,96548.34
2024-03-28T15:42:35.676Z,96552.54
2024-03-28T15:45:23.997Z,96559.05
2024-03-28T15:48:12.180Z,96560.73
2024-03-28T15:51:00.202Z,96557.67
2024-03-28T15:53:48.032Z,96566.64
2024-03-28T15:56:35.717Z,96564.79
2024-03-28T15:59:23.325Z,96573.63
2024-03-28T16:02:11.579Z,96577.22
2024-03-28T16:04:59.801Z,96579.92
2024-03-28T16:07:47.637Z,96581.94
2024-03-28T16:10:35.898Z,96583.05
2024-03-28T16:13:23.732Z,96589.15
2024-03-28T16:16:11.502Z,96586.52
2024-03-28T16:18:59.501Z,96595.91
2024-03-28T16:21:47.088Z,96599.25
2024-03-28T16:24:34.856Z,96601.66
2024-03-28T16:27:23.426Z,96604.05
2024-03-28T16:30:13.301Z,96603.77
2024-03-28T16:33:01.011Z,96606.73
2024-03-28T16:35:56.240Z,96614.13
2024-03-28T16:38:44.780Z,96616.70
2024-03-28T16:41:34.311Z,96621.36
2024-03-28T16:44:21.837Z,96623.08
2024-03-28T16:47:10.008Z,96624.23
2024-03-28T16:49:58.138Z,96622.55
2024-03-28T16:52:46.518Z,96626.30
2024-03-28T16:55:34.786Z,96626.84
2024-03-28T16:58:23.416Z,96625.77
2024-03-28T17:01:11.200Z,96628.23
2024-03-28T17:04:01.123Z,96629.77
2024-03-28T17:06:48.674Z,96629.84
2024-03-28T17:09:36.533Z,96629.45
2024-03-28T17:12:24.276Z,96631.21
2024-03-28T17:15:12.147Z,96631.38
2024-03-28T17:18:00.105Z,96631.87
2024-03-28T17:20:47.579Z,96635.86
2024-03-28T17:23:36.363Z,96637.48
2024-03-28T17:26:24.143Z,96634.84
2024-03-28T17:29:12.043Z,96633.20
2024-03-28T17:31:59.739Z,96632.77
2024-03-28T17:34:49.864Z,96633.35
2024-03-28T17:37:37.564Z,96629.23
2024-03-28T17:40:25.576Z,96627.79
2024-03-28T17:43:13.781Z,96626.45
2024-03-28T17:46:03.639Z,96628.48
2024-03-28T17:48:52.019Z,96624.08
2024-03-28T17:51:40.060Z,96618.25
2024-03-28T17:54:27.796Z,96613.39
2024-03-28T17:57:17.163Z,96616.02
2024-03-28T18:00:06.879Z,96613.06
2024-03-28T18:02:54.619Z,96613.60
2024-03-28T18:05:43.439Z,96613.72
2024-03-28T18:08:31.487Z,96616.21
2024-03-28T18:11:20.037Z,96619.30
2024-03-28T18:14:09.665Z,96621.20
2024-03-28T18:16:57.594Z,96625.19
2024-03-28T18:19:45.725Z,96623.41
2024-03-28T18:22:33.921Z,96629.09
2024-03-28T18:25:21.397Z,96633.83
2024-03-28T18:28:09.289Z,96640.77
2024-03-28T18:30:57.157Z,96641.33
2024-03-28T18:33:46.217Z,96646.99
2024-03-28T18:36:34.978Z,96649.58
2024-03-28T18:39:22.479Z,96653.86
2024-03-28T18:42:10.158Z,96655.98
2024-03-28T18:44:59.598Z,96661.17
2024-03-28T18:47:47.527Z,96662.52
2024-03-28T18:50:40.832Z,96663.61
2024-03-28T18:53:30.370Z,96668.95
2024-03-28T18:56:20.567Z,96670.98
2024-03-28T18:59:12.192Z,96672.08
2024-03-28T19:02:00.236Z,96676.05
2024-03-28T19:04:47.795Z,96682.52
2024-03-28T19:07:35.635Z,96676.84
2024-03-28T19:10:23.447Z,96676.51
2024-03-28T19:13:11.325Z,96675.11
2024-03-28T19:15:58.898Z,96669.84
2024-03-28T19:18:47.254Z,96670.89
2024-03-28T19:21:35.303Z,96670.48
2024-03-28T19:24:22.708Z,96682.77
2024-03-28T19:27:10.663Z,96695.11
2024-03-28T19:30:01.008Z,96724.64
2024-03-28T19:32:53.233Z,96739.39
2024-03-28T19:35:41.858Z,96753.76
2024-03-28T19:38:29.784Z,96763.58
2024-03-28T19:41:20.191Z,96771.15
2024-03-28T19:44:08.176Z,96777.31
2024-03-28T19:46:56.866Z,96781.60
2024-03-28T19:49:45.149Z,96785.39
2024-03-28T19:52:33.781Z,96787.64
2024-03-28T19:55:21.736Z,96796.14
2024-03-28T19:58:09.813Z,96799.58
2024-03-28T20:00:58.230Z,96798.60
2024-03-28T20:03:46.620Z,96800.18
2024-03-28T20:06:35.129Z,96806.52
2024-03-28T20:09:23.199Z,96816.27
2024-03-28T20:12:10.909Z,96826.37
2024-03-28T20:15:01.752Z,96834.73
2024-03-28T20:17:49.783Z,96837.54
2024-03-28T20:20:37.494Z,96844.84
2024-03-28T20:23:25.328Z,96842.61
2024-03-28T20:26:13.089Z,96838.67
2024-03-28T20:29:01.234Z,96847.61
2024-03-28T20:31:49.286Z,96852.55
2024-03-28T20:34:38.020Z,96855.91
2024-03-28T20:37:26.578Z,96856.98
2024-03-28T20:40:14.734Z,96855.65
2024-03-28T20:43:02.988Z,96859.71
2024-03-28T20:45:50.804Z,96872.23
2024-03-28T20:48:38.861Z,96878.08
2024-03-28T20:51:26.771Z,96886.14
2024-03-28T20:54:15.106Z,96896.48
2024-03-28T20:57:06.369Z,96903.03
2024-03-28T20:59:54.638Z,96912.08
2024-03-28T21:02:42.777Z,96915.52
2024-03-28T21:05:30.821Z,96916.09
2024-03-28T21:08:37.504Z,96920.38
2024-03-28T21:11:27.751Z,96912.98
2024-03-28T21:14:15.451Z,96902.11
2024-03-28T21:17:03.565Z,96900.76
2024-03-28T21:19:51.811Z,96919.33
2024-03-28T21:22:39.843Z,96933.88
2024-03-28T21:25:27.703Z,96948.92
2024-03-28T21:28:15.716Z,96945.98
2024-03-28T21:31:04.349Z,96940.86
2024-03-28T21:33:53.619Z,96939.27
2024-03-28T21:36:42.091Z,96937.96
2024-03-28T21:39:30.442Z,96945.39
2024-03-28T21:42:18.163Z,96954.48
2024-03-28T21:45:13.942Z,96962.69
2024-03-28T21:48:03.068Z,96981.36
2024-03-28T21:50:50.999Z,96997.95
2024-03-28T21:53:39.456Z,97011.02
2024-03-28T21:56:28.508Z,97014.08
2024-03-28T21:59:16.266Z,97018.83
2024-03-28T22:02:04.579Z,97028.35
2024-03-28T22:04:52.326Z,97036.48
2024-03-28T22:07:40.178Z,97044.63
2024-03-28T22:10:28.403Z,97040.90
2024-03-28T22:13:16.775Z,97047.41
2024-03-28T22:16:07.488Z,97056.33
2024-03-28T22:18:56.424Z,97064.88
2024-03-28T22:21:44.353Z,97071.04
2024-03-28T22:24:32.118Z,97079.15
2024-03-28T22:27:19.960Z,97081.88
2024-03-28T22:30:08.601Z,97085.45
2024-03-28T22:32:56.181Z,97099.32
2024-03-28T22:35:45.569Z,97097.38
2024-03-28T22:38:33.629Z,97100.69
2024-03-28T22:41:21.688Z,97113.10
2024-03-28T22:44:09.407Z,97117.87
2024-03-28T22:46:56.876Z,97114.98
2024-03-28T22:49:45.626Z,97123.39
2024-03-28T22:52:33.561Z,97127.91
2024-03-28T22:55:21.793Z,97130.37
2024-03-28T22:58:09.513Z,97137.21
2024-03-28T23:00:58.093Z,97143.37
2024-03-28T23:03:46.028Z,97148.00
2024-03-28T23:06:33.764Z,97148.69
2024-03-28T23:09:21.398Z,97158.70
2024-03-28T23:12:09.185Z,97161.19
2024-03-28T23:14:56.656Z,97163.02
2024-03-28T23:17:44.676Z,97165.46
2024-03-28T23:20:32.627Z,97168.07
2024-03-28T23:23:20.663Z,97182.00
2024-03-28T23:26:08.629Z,97194.33
2024-03-28T23:28:56.655Z,97204.86
2024-03-28T23:31:44.615Z,97202.34
2024-03-28T23:34:32.726Z,97201.06
2024-03-28T23:37:20.494Z,97197.72
2024-03-28T23:40:09.213Z,97193.30
2024-03-28T23:42:56.739Z,97191.70
2024-03-28T23:45:51.953Z,97190.83
2024-03-28T23:48:39.291Z,97197.55
2024-03-28T23:51:26.735Z,97208.25
2024-03-28T23:54:14.548Z,97216.66
2024-03-28T23:57:02.215Z,97229.58
2024-03-28T23:59:51.144Z,97229.19
